TNCC/CUR METAR and TAF weather

Enter ICAO airport designator
Station Type Date Time Source
TNCC METAR 2020/09/18 15:00 UTC NOAA

TNCC 181500Z 04005KT 350V070 9999 FEW023 31/24 Q1013 NOSIG=


Station Type Date Time Source
TNCC Decoded METAR 2020/09/18 15:00 UTC NOAA

Hato Airport, Curacao, Netherlands Antilles (TNCC) 12-12N 068-58W 67M
Sep 18, 2020 - 11:00 AM EDT / 2020.09.18 1500 UTC
Wind: from the NE (040 degrees) at 6 MPH (5 KT) (direction variable):0
Visibility: greater than 7 mile(s):0
Sky conditions: mostly clear
Temperature: 87 F (31 C)
Heat index: 95.7 F (35.4 C):1
Dew Point: 75 F (24 C)
Relative Humidity: 66%
Pressure (altimeter): 29.91 in. Hg (1013 hPa)
ob: TNCC 181500Z 04005KT 350V070 9999 FEW023 31/24 Q1013 NOSIG=
cycle: 15

Station Type Date Time Source
TNCC TAF 2020/09/18 12:26 UTC NOAA

TAF COR TNCC 181101Z 1812/1912 VRB03KT 9999 SCT018
BECMG 1815/1817 04005KT

Example: see airport list